sensor_id;sensor_type;location;lat;lon;timestamp;temperature;humidity
73875;HTU21D;62209;47.568;7.558;2023-06-22T00:14:43;19.65;109.36
73875;HTU21D;62209;47.568;7.558;2023-06-22T00:29:49;19.59;107.98
73875;HTU21D;62209;47.568;7.558;2023-06-22T00:44:55;19.51;108.47
73875;HTU21D;62209;47.568;7.558;2023-06-22T01:00:02;19.53;108.85
73875;HTU21D;62209;47.568;7.558;2023-06-22T01:15:21;19.39;108.94
73875;HTU21D;62209;47.568;7.558;2023-06-22T01:30:33;19.27;109.01
73875;HTU21D;62209;47.568;7.558;2023-06-22T01:45:40;19.30;109.81
73875;HTU21D;62209;47.568;7.558;2023-06-22T02:00:48;19.18;109.00
73875;HTU21D;62209;47.568;7.558;2023-06-22T02:15:57;19.10;109.31
73875;HTU21D;62209;47.568;7.558;2023-06-22T02:31:04;18.86;109.07
73875;HTU21D;62209;47.568;7.558;2023-06-22T02:46:09;18.77;108.56
73875;HTU21D;62209;47.568;7.558;2023-06-22T03:01:16;18.82;109.07
73875;HTU21D;62209;47.568;7.558;2023-06-22T03:16:28;18.80;109.33
73875;HTU21D;62209;47.568;7.558;2023-06-22T03:31:33;18.92;109.33
73875;HTU21D;62209;47.568;7.558;2023-06-22T03:46:40;18.96;109.36
73875;HTU21D;62209;47.568;7.558;2023-06-22T04:01:46;19.01;109.61
73875;HTU21D;62209;47.568;7.558;2023-06-22T04:16:53;19.05;109.46
73875;HTU21D;62209;47.568;7.558;2023-06-22T04:31:59;19.24;109.85
73875;HTU21D;62209;47.568;7.558;2023-06-22T04:47:06;19.40;108.85
73875;HTU21D;62209;47.568;7.558;2023-06-22T05:02:13;19.53;109.74
73875;HTU21D;62209;47.568;7.558;2023-06-22T05:17:19;20.24;108.04
73875;HTU21D;62209;47.568;7.558;2023-06-22T05:32:24;20.89;106.28
73875;HTU21D;62209;47.568;7.558;2023-06-22T05:47:30;21.06;104.45
73875;HTU21D;62209;47.568;7.558;2023-06-22T06:02:36;21.67;102.83
73875;HTU21D;62209;47.568;7.558;2023-06-22T06:17:48;21.33;105.02
73875;HTU21D;62209;47.568;7.558;2023-06-22T06:32:54;21.02;107.07
73875;HTU21D;62209;47.568;7.558;2023-06-22T06:48:00;20.96;105.98
73875;HTU21D;62209;47.568;7.558;2023-06-22T07:03:05;21.95;102.89
73875;HTU21D;62209;47.568;7.558;2023-06-22T07:18:11;23.05;99.96
73875;HTU21D;62209;47.568;7.558;2023-06-22T07:33:17;22.76;101.34
73875;HTU21D;62209;47.568;7.558;2023-06-22T07:48:22;23.13;99.75
73875;HTU21D;62209;47.568;7.558;2023-06-22T08:03:29;23.59;98.06
73875;HTU21D;62209;47.568;7.558;2023-06-22T08:18:35;24.89;92.24
73875;HTU21D;62209;47.568;7.558;2023-06-22T08:33:40;25.13;93.11
73875;HTU21D;62209;47.568;7.558;2023-06-22T08:48:52;25.75;90.16
73875;HTU21D;62209;47.568;7.558;2023-06-22T09:03:58;25.89;89.44
73875;HTU21D;62209;47.568;7.558;2023-06-22T09:19:04;25.51;89.82
73875;HTU21D;62209;47.568;7.558;2023-06-22T09:34:10;25.88;89.94
73875;HTU21D;62209;47.568;7.558;2023-06-22T09:49:15;26.27;88.07
73875;HTU21D;62209;47.568;7.558;2023-06-22T10:04:40;26.31;89.34
73875;HTU21D;62209;47.568;7.558;2023-06-22T10:19:46;26.20;90.05
73875;HTU21D;62209;47.568;7.558;2023-06-22T10:34:51;26.37;92.64
73875;HTU21D;62209;47.568;7.558;2023-06-22T10:50:01;26.45;90.63
73875;HTU21D;62209;47.568;7.558;2023-06-22T11:05:07;26.39;94.62
73875;HTU21D;62209;47.568;7.558;2023-06-22T11:20:13;26.61;93.14
73875;HTU21D;62209;47.568;7.558;2023-06-22T11:35:19;26.68;94.17
73875;HTU21D;62209;47.568;7.558;2023-06-22T11:50:25;28.08;90.14
73875;HTU21D;62209;47.568;7.558;2023-06-22T12:05:34;27.28;90.28
73875;HTU21D;62209;47.568;7.558;2023-06-22T12:20:39;26.76;86.46
73875;HTU21D;62209;47.568;7.558;2023-06-22T12:35:45;27.41;88.19
73875;HTU21D;62209;47.568;7.558;2023-06-22T12:50:52;27.81;83.90
73875;HTU21D;62209;47.568;7.558;2023-06-22T13:05:58;27.09;83.10
73875;HTU21D;62209;47.568;7.558;2023-06-22T13:21:03;26.31;88.14
73875;HTU21D;62209;47.568;7.558;2023-06-22T13:36:09;26.02;90.95
73875;HTU21D;62209;47.568;7.558;2023-06-22T13:51:15;26.23;91.87
73875;HTU21D;62209;47.568;7.558;2023-06-22T14:06:21;26.60;92.08
73875;HTU21D;62209;47.568;7.558;2023-06-22T14:21:27;26.77;90.15
73875;HTU21D;62209;47.568;7.558;2023-06-22T14:36:32;26.81;87.24
73875;HTU21D;62209;47.568;7.558;2023-06-22T14:51:38;27.14;85.81
73875;HTU21D;62209;47.568;7.558;2023-06-22T15:06:43;26.84;86.87
73875;HTU21D;62209;47.568;7.558;2023-06-22T15:21:49;26.40;85.17
73875;HTU21D;62209;47.568;7.558;2023-06-22T15:36:55;26.40;86.00
73875;HTU21D;62209;47.568;7.558;2023-06-22T15:52:01;25.83;88.15
73875;HTU21D;62209;47.568;7.558;2023-06-22T16:07:07;25.69;89.93
73875;HTU21D;62209;47.568;7.558;2023-06-22T16:22:13;25.91;87.69
73875;HTU21D;62209;47.568;7.558;2023-06-22T16:37:21;25.19;86.20
73875;HTU21D;62209;47.568;7.558;2023-06-22T16:52:26;24.92;87.89
73875;HTU21D;62209;47.568;7.558;2023-06-22T17:07:32;24.75;86.83
73875;HTU21D;62209;47.568;7.558;2023-06-22T17:22:42;17.26;110.17
73875;HTU21D;62209;47.568;7.558;2023-06-22T17:37:49;18.64;104.28
73875;HTU21D;62209;47.568;7.558;2023-06-22T17:52:56;18.62;104.21
73875;HTU21D;62209;47.568;7.558;2023-06-22T18:08:02;18.77;103.02
73875;HTU21D;62209;47.568;7.558;2023-06-22T18:23:09;18.88;103.79
73875;HTU21D;62209;47.568;7.558;2023-06-22T18:38:16;19.02;104.38
73875;HTU21D;62209;47.568;7.558;2023-06-22T18:53:26;19.07;104.73
73875;HTU21D;62209;47.568;7.558;2023-06-22T19:24:09;18.85;106.99
73875;HTU21D;62209;47.568;7.558;2023-06-22T19:39:38;18.94;106.56
73875;HTU21D;62209;47.568;7.558;2023-06-22T19:54:46;18.91;107.20
73875;HTU21D;62209;47.568;7.558;2023-06-22T20:25:19;18.64;107.08
73875;HTU21D;62209;47.568;7.558;2023-06-22T20:40:26;18.40;107.26
73875;HTU21D;62209;47.568;7.558;2023-06-22T20:55:33;18.30;108.01
73875;HTU21D;62209;47.568;7.558;2023-06-22T21:10:41;18.38;108.17
73875;HTU21D;62209;47.568;7.558;2023-06-22T21:25:47;18.39;107.41
73875;HTU21D;62209;47.568;7.558;2023-06-22T21:40:53;18.24;107.40
73875;HTU21D;62209;47.568;7.558;2023-06-22T21:55:59;18.14;107.97
73875;HTU21D;62209;47.568;7.558;2023-06-22T22:11:05;18.02;108.68
73875;HTU21D;62209;47.568;7.558;2023-06-22T22:26:11;17.82;108.75
73875;HTU21D;62209;47.568;7.558;2023-06-22T22:41:17;17.80;109.54
73875;HTU21D;62209;47.568;7.558;2023-06-22T22:56:22;17.76;110.04
73875;HTU21D;62209;47.568;7.558;2023-06-22T23:11:29;17.73;110.10
73875;HTU21D;62209;47.568;7.558;2023-06-22T23:26:35;17.68;110.71
73875;HTU21D;62209;47.568;7.558;2023-06-22T23:41:41;17.62;110.96
73875;HTU21D;62209;47.568;7.558;2023-06-22T23:56:49;17.63;111.28
